createdAt,value
2023-08-30T00:02:48.996Z,18.99
2023-08-30T00:07:52.055Z,18.99
2023-08-30T00:12:55.377Z,19.02
2023-08-30T00:17:58.431Z,19.06
2023-08-30T00:23:01.600Z,19.07
2023-08-30T00:28:05.113Z,19.07
2023-08-30T00:33:08.061Z,19.05
2023-08-30T00:38:11.609Z,19.04
2023-08-30T00:43:15.261Z,19.05
2023-08-30T00:48:20.761Z,19.01
2023-08-30T00:53:24.019Z,18.95
2023-08-30T00:58:30.450Z,18.91
2023-08-30T01:03:33.748Z,18.88
2023-08-30T01:08:38.485Z,18.86
2023-08-30T01:13:53.179Z,18.85
2023-08-30T01:18:58.224Z,18.87
2023-08-30T01:24:04.401Z,18.90
2023-08-30T01:29:10.275Z,18.94
2023-08-30T01:34:14.688Z,18.97
2023-08-30T01:39:17.904Z,18.98
2023-08-30T01:44:21.273Z,18.97
2023-08-30T01:49:25.654Z,18.94
2023-08-30T01:54:30.221Z,18.88
2023-08-30T01:59:33.335Z,18.80
2023-08-30T02:04:36.375Z,18.71
2023-08-30T02:10:03.202Z,18.61
2023-08-30T02:15:08.682Z,18.53
2023-08-30T02:20:12.405Z,18.49
2023-08-30T02:25:15.674Z,18.44
2023-08-30T02:30:18.650Z,18.37
2023-08-30T02:35:21.741Z,18.30
2023-08-30T02:40:24.669Z,18.24
2023-08-30T02:45:27.663Z,18.19
2023-08-30T02:50:30.642Z,18.16
2023-08-30T02:55:33.644Z,18.18
2023-08-30T03:00:36.677Z,18.18
2023-08-30T03:05:39.662Z,18.14
2023-08-30T03:10:42.668Z,18.15
2023-08-30T03:15:46.454Z,18.15
2023-08-30T03:20:49.498Z,18.12
2023-08-30T03:25:53.119Z,18.12
2023-08-30T03:30:56.182Z,18.15
2023-08-30T03:36:00.386Z,18.16
2023-08-30T03:41:04.926Z,18.15
2023-08-30T03:46:08.201Z,18.15
2023-08-30T03:51:11.328Z,18.13
2023-08-30T03:56:14.344Z,18.12
2023-08-30T04:01:17.428Z,18.10
2023-08-30T04:06:20.490Z,18.09
2023-08-30T04:11:23.775Z,18.09
2023-08-30T04:16:27.123Z,18.10
2023-08-30T04:21:30.191Z,18.12
2023-08-30T04:26:33.203Z,18.13
2023-08-30T04:31:36.199Z,18.16
2023-08-30T04:36:39.821Z,18.19
2023-08-30T04:41:42.839Z,18.26
2023-08-30T04:46:45.862Z,18.37
2023-08-30T04:51:49.145Z,18.46
2023-08-30T04:56:52.692Z,18.47
2023-08-30T05:01:55.780Z,18.47
2023-08-30T05:06:58.786Z,18.48
2023-08-30T05:12:02.042Z,18.47
2023-08-30T05:17:05.410Z,18.46
2023-08-30T05:22:08.837Z,18.40
2023-08-30T05:27:12.965Z,18.32
2023-08-30T05:32:15.979Z,18.29
2023-08-30T05:37:18.879Z,18.31
2023-08-30T05:42:21.893Z,18.34
2023-08-30T05:47:25.109Z,18.44
2023-08-30T05:52:28.111Z,18.71
2023-08-30T05:57:34.753Z,19.13
2023-08-30T06:02:37.794Z,19.63
2023-08-30T06:07:40.832Z,19.95
2023-08-30T06:12:43.916Z,20.18
2023-08-30T06:17:47.804Z,20.28
2023-08-30T06:22:51.162Z,20.15
2023-08-30T06:28:00.176Z,19.90
2023-08-30T06:33:03.848Z,19.65
2023-08-30T06:38:07.488Z,19.54
2023-08-30T06:43:10.761Z,19.52
2023-08-30T06:48:14.484Z,19.54
2023-08-30T06:53:17.600Z,19.56
2023-08-30T06:58:20.609Z,19.56
2023-08-30T07:03:23.777Z,19.70
2023-08-30T07:08:28.048Z,19.99
2023-08-30T07:13:31.050Z,20.64
2023-08-30T07:18:34.074Z,21.16
2023-08-30T07:23:37.073Z,21.39
2023-08-30T07:28:40.079Z,21.26
2023-08-30T07:33:43.083Z,21.05
2023-08-30T07:38:46.092Z,20.88
2023-08-30T07:43:49.088Z,20.73
2023-08-30T07:48:52.005Z,20.79
2023-08-30T07:53:54.834Z,20.93
2023-08-30T07:58:58.577Z,21.38
2023-08-30T08:04:07.131Z,21.71
2023-08-30T08:09:10.999Z,21.56
2023-08-30T08:14:14.769Z,21.42
2023-08-30T08:19:18.024Z,21.38
2023-08-30T08:24:21.034Z,21.22
2023-08-30T08:29:24.041Z,21.05
2023-08-30T08:34:27.056Z,20.96
2023-08-30T08:39:31.888Z,21.00
2023-08-30T08:44:36.949Z,21.08
2023-08-30T08:49:40.978Z,21.13
2023-08-30T08:54:45.216Z,21.17
2023-08-30T08:59:48.368Z,21.09
2023-08-30T09:04:53.985Z,20.97
2023-08-30T09:09:57.110Z,20.86
2023-08-30T09:15:00.138Z,20.85
2023-08-30T09:20:14.083Z,20.85
2023-08-30T09:25:26.293Z,20.70
2023-08-30T09:30:30.723Z,20.56
2023-08-30T09:35:33.961Z,20.60
2023-08-30T09:40:36.963Z,20.61
2023-08-30T09:45:40.422Z,20.64
2023-08-30T09:50:46.463Z,20.68
2023-08-30T09:55:50.513Z,20.55
2023-08-30T10:00:54.178Z,20.38
2023-08-30T10:05:57.886Z,20.22
2023-08-30T10:11:01.558Z,20.18
2023-08-30T10:16:06.096Z,20.18
2023-08-30T10:21:13.815Z,20.23
2023-08-30T10:26:18.455Z,20.34
2023-08-30T10:31:22.228Z,20.47
2023-08-30T10:36:27.342Z,20.55
2023-08-30T10:41:30.444Z,20.59
2023-08-30T10:46:35.227Z,20.62
2023-08-30T10:51:42.510Z,20.65
2023-08-30T10:57:02.820Z,20.70
2023-08-30T11:02:06.338Z,20.82
2023-08-30T11:07:09.631Z,21.01
2023-08-30T11:12:13.269Z,21.20
2023-08-30T11:17:19.235Z,21.47
2023-08-30T11:22:22.554Z,21.66
2023-08-30T11:27:25.465Z,21.81
2023-08-30T11:32:28.469Z,22.01
2023-08-30T11:37:31.646Z,22.05
2023-08-30T11:42:35.226Z,22.02
2023-08-30T11:47:38.538Z,21.94
2023-08-30T11:52:42.324Z,21.90
2023-08-30T11:57:46.502Z,21.94
2023-08-30T12:02:49.753Z,22.03
2023-08-30T12:07:52.898Z,21.97
2023-08-30T12:12:56.205Z,21.86
2023-08-30T12:18:07.727Z,21.75
2023-08-30T12:23:24.031Z,21.65
2023-08-30T12:28:28.250Z,21.50
2023-08-30T12:33:32.720Z,21.39
2023-08-30T12:38:35.654Z,21.41
2023-08-30T12:43:38.517Z,21.40
2023-08-30T12:48:42.544Z,21.35
2023-08-30T12:53:45.557Z,21.35
2023-08-30T12:58:48.563Z,21.44
2023-08-30T13:03:51.573Z,21.57
2023-08-30T13:08:54.580Z,21.80
2023-08-30T13:13:59.727Z,22.16
2023-08-30T13:19:02.737Z,22.31
2023-08-30T13:24:06.601Z,22.31
2023-08-30T13:29:09.500Z,22.14
2023-08-30T13:34:12.473Z,21.82
2023-08-30T13:39:16.202Z,21.65
2023-08-30T13:44:19.213Z,21.60
2023-08-30T13:49:22.418Z,21.64
2023-08-30T13:54:26.004Z,21.62
2023-08-30T13:59:29.961Z,21.39
2023-08-30T14:04:39.223Z,21.13
2023-08-30T14:09:42.339Z,20.92
2023-08-30T14:14:45.332Z,20.78
2023-08-30T14:19:48.830Z,20.82
2023-08-30T14:25:03.312Z,21.05
2023-08-30T14:30:14.932Z,21.51
2023-08-30T14:35:18.251Z,21.83
2023-08-30T14:40:21.259Z,21.89
2023-08-30T14:45:24.397Z,21.83
2023-08-30T14:50:27.397Z,21.66
2023-08-30T14:55:30.862Z,21.53
2023-08-30T15:00:33.942Z,21.52
2023-08-30T15:05:37.112Z,21.41
2023-08-30T15:10:40.573Z,21.18
2023-08-30T15:15:43.645Z,20.97
2023-08-30T15:20:48.696Z,20.87
2023-08-30T15:25:52.108Z,20.84
2023-08-30T15:30:56.148Z,20.72
2023-08-30T15:35:59.789Z,20.57
2023-08-30T15:41:07.575Z,20.40
2023-08-30T15:46:12.837Z,20.16
2023-08-30T15:51:23.827Z,19.95
2023-08-30T15:56:27.774Z,19.86
2023-08-30T16:01:31.055Z,19.86
2023-08-30T16:06:34.183Z,19.88
2023-08-30T16:11:37.288Z,19.90
2023-08-30T16:16:42.431Z,19.87
2023-08-30T16:21:46.146Z,19.76
2023-08-30T16:26:52.076Z,19.65
2023-08-30T16:31:55.977Z,19.61
2023-08-30T16:36:58.994Z,19.57
2023-08-30T16:42:02.098Z,19.52
2023-08-30T16:47:05.762Z,19.51
2023-08-30T16:52:10.459Z,19.45
2023-08-30T16:57:13.470Z,19.37
2023-08-30T17:02:16.431Z,19.24
2023-08-30T17:07:19.485Z,19.21
2023-08-30T17:12:22.590Z,19.21
2023-08-30T17:17:25.593Z,19.16
2023-08-30T17:22:28.711Z,19.13
2023-08-30T17:27:31.759Z,19.07
2023-08-30T17:32:35.260Z,19.02
2023-08-30T17:37:38.354Z,18.96
2023-08-30T17:42:41.462Z,18.85
2023-08-30T17:47:44.603Z,18.74
2023-08-30T17:52:47.678Z,18.68
2023-08-30T17:57:50.776Z,18.63
2023-08-30T18:02:53.846Z,18.62
2023-08-30T18:07:58.424Z,18.61
2023-08-30T18:13:01.433Z,18.61
2023-08-30T18:18:06.171Z,18.59
2023-08-30T18:23:09.187Z,18.60
2023-08-30T18:28:13.223Z,18.60
2023-08-30T18:33:16.888Z,18.58
2023-08-30T18:38:19.963Z,18.53
2023-08-30T18:43:23.568Z,18.49
2023-08-30T18:48:26.574Z,18.46
2023-08-30T18:53:29.579Z,18.42
2023-08-30T18:58:33.016Z,18.40
2023-08-30T19:03:36.238Z,18.41
2023-08-30T19:08:39.528Z,18.38
2023-08-30T19:13:43.249Z,18.36
2023-08-30T19:18:47.903Z,18.32
2023-08-30T19:23:52.130Z,18.28
2023-08-30T19:28:55.754Z,18.26
2023-08-30T19:33:59.478Z,18.29
2023-08-30T19:39:04.942Z,18.30
2023-08-30T19:44:07.946Z,18.34
2023-08-30T19:49:11.166Z,18.34
2023-08-30T19:54:14.370Z,18.29
2023-08-30T19:59:17.788Z,18.24
2023-08-30T20:04:21.109Z,18.22
2023-08-30T20:09:24.726Z,18.22
2023-08-30T20:14:28.091Z,18.26
2023-08-30T20:19:31.185Z,18.26
2023-08-30T20:24:34.560Z,18.23
2023-08-30T20:29:37.669Z,18.18
2023-08-30T20:34:41.593Z,18.18
2023-08-30T20:39:44.603Z,18.21
2023-08-30T20:44:47.609Z,18.22
2023-08-30T20:49:50.922Z,18.23
2023-08-30T20:54:54.958Z,18.24
2023-08-30T20:59:57.961Z,18.27
2023-08-30T21:05:02.036Z,18.33
2023-08-30T21:10:05.816Z,18.33
2023-08-30T21:15:09.632Z,18.30
2023-08-30T21:20:12.666Z,18.27
2023-08-30T21:25:15.666Z,18.24
2023-08-30T21:30:18.791Z,18.21
2023-08-30T21:35:21.771Z,18.19
2023-08-30T21:40:24.795Z,18.21
2023-08-30T21:45:28.502Z,18.20
2023-08-30T21:50:31.824Z,18.15
2023-08-30T21:55:34.829Z,18.12
2023-08-30T22:00:38.246Z,18.10
2023-08-30T22:05:41.569Z,18.07
2023-08-30T22:10:44.506Z,18.05
2023-08-30T22:15:47.466Z,18.07
2023-08-30T22:20:52.934Z,18.08
2023-08-30T22:25:55.954Z,18.07
2023-08-30T22:30:59.097Z,18.09
2023-08-30T22:36:05.744Z,18.09
2023-08-30T22:41:08.746Z,18.10
2023-08-30T22:46:11.753Z,18.09
2023-08-30T22:51:14.864Z,18.06
2023-08-30T22:56:18.977Z,18.04
2023-08-30T23:01:22.021Z,18.05
2023-08-30T23:06:25.758Z,18.09
2023-08-30T23:11:28.733Z,18.09
2023-08-30T23:16:31.843Z,18.10
2023-08-30T23:21:35.269Z,18.09
2023-08-30T23:26:38.882Z,18.05
2023-08-30T23:31:41.754Z,18.04
2023-08-30T23:36:44.888Z,18.02
2023-08-30T23:41:48.309Z,17.97
2023-08-30T23:46:51.310Z,17.95
2023-08-30T23:51:55.139Z,17.94
2023-08-30T23:56:58.747Z,17.94
